createdAt,value
2018-05-14T00:00:37.469Z,0.40
2018-05-14T00:02:40.830Z,0.40
2018-05-14T00:04:44.981Z,0.40
2018-05-14T00:06:48.348Z,0.93
2018-05-14T00:08:52.438Z,0.50
2018-05-14T00:10:55.873Z,0.40
2018-05-14T00:12:59.199Z,0.40
2018-05-14T00:15:02.568Z,0.40
2018-05-14T00:17:05.880Z,0.93
2018-05-14T00:19:09.254Z,0.40
2018-05-14T00:21:12.689Z,2.77
2018-05-14T00:23:17.044Z,0.93
2018-05-14T00:25:20.436Z,0.40
2018-05-14T00:27:23.873Z,0.43
2018-05-14T00:29:27.224Z,0.50
2018-05-14T00:31:30.562Z,0.40
2018-05-14T00:33:34.026Z,0.40
2018-05-14T00:35:38.183Z,0.40
2018-05-14T00:37:42.975Z,3.03
2018-05-14T00:39:46.324Z,1.50
2018-05-14T00:41:49.876Z,0.40
2018-05-14T00:43:53.246Z,0.50
2018-05-14T00:45:56.626Z,0.40
2018-05-14T00:47:59.922Z,1.43
2018-05-14T00:50:03.283Z,0.50
2018-05-14T00:52:07.398Z,0.50
2018-05-14T00:54:10.738Z,4.73
2018-05-14T00:56:14.047Z,2.00
2018-05-14T00:58:17.396Z,0.40
2018-05-14T01:00:20.722Z,0.40
2018-05-14T01:02:24.063Z,0.40
2018-05-14T01:04:27.445Z,0.40
2018-05-14T01:06:31.632Z,3.47
2018-05-14T01:08:34.935Z,0.40
2018-05-14T01:10:39.061Z,1.80
2018-05-14T01:12:43.871Z,2.20
2018-05-14T01:14:47.949Z,0.57
2018-05-14T01:16:52.114Z,2.30
2018-05-14T01:18:55.460Z,0.40
2018-05-14T01:20:58.762Z,0.60
2018-05-14T01:23:02.245Z,0.77
2018-05-14T01:25:05.632Z,0.40
2018-05-14T01:27:09.529Z,0.50
2018-05-14T01:29:12.898Z,2.73
2018-05-14T01:31:16.240Z,0.40
2018-05-14T01:33:19.681Z,0.40
2018-05-14T01:35:23.276Z,0.40
2018-05-14T01:37:26.582Z,1.03
2018-05-14T01:39:30.690Z,0.50
2018-05-14T01:41:34.104Z,2.30
2018-05-14T01:43:37.426Z,0.40
2018-05-14T01:45:41.003Z,0.50
2018-05-14T01:47:44.429Z,0.80
2018-05-14T01:49:48.596Z,0.53
2018-05-14T01:51:52.712Z,1.90
2018-05-14T01:53:56.015Z,0.50
2018-05-14T01:55:59.369Z,0.40
2018-05-14T01:58:02.669Z,0.60
2018-05-14T02:00:06.792Z,0.50
2018-05-14T02:02:10.122Z,8.80
2018-05-14T02:04:14.228Z,0.50
2018-05-14T02:06:18.304Z,0.50
2018-05-14T02:08:21.667Z,2.10
2018-05-14T02:10:24.977Z,0.50
2018-05-14T02:12:28.376Z,0.50
2018-05-14T02:14:32.576Z,0.70
2018-05-14T02:16:35.933Z,2.10
2018-05-14T02:18:39.249Z,0.40
2018-05-14T02:20:42.609Z,0.93
2018-05-14T02:22:46.727Z,0.90
2018-05-14T02:24:50.921Z,0.87
2018-05-14T02:26:54.251Z,0.40
2018-05-14T02:28:57.607Z,0.40
2018-05-14T02:31:01.018Z,1.40
2018-05-14T02:33:04.403Z,2.10
2018-05-14T02:35:07.748Z,0.40
2018-05-14T02:37:11.172Z,0.60
2018-05-14T02:39:15.291Z,4.30
2018-05-14T02:41:18.595Z,0.40
2018-05-14T02:43:22.013Z,0.50
2018-05-14T02:45:25.315Z,0.83
2018-05-14T02:47:29.441Z,14.80
2018-05-14T02:49:32.752Z,0.97
2018-05-14T02:51:36.066Z,2.20
2018-05-14T02:53:40.203Z,0.43
2018-05-14T02:55:43.548Z,1.43
2018-05-14T02:57:46.950Z,0.40
2018-05-14T02:59:51.077Z,0.53
2018-05-14T03:01:55.208Z,1.83
2018-05-14T03:03:58.553Z,14.17
2018-05-14T03:06:01.882Z,0.40
2018-05-14T03:08:05.231Z,0.40
2018-05-14T03:10:08.568Z,1.07
2018-05-14T03:12:12.011Z,0.63
2018-05-14T03:14:17.165Z,3.60
2018-05-14T03:16:20.536Z,9.93
2018-05-14T03:18:23.878Z,0.50
2018-05-14T03:20:27.211Z,0.97
2018-05-14T03:22:30.537Z,0.40
2018-05-14T03:24:33.922Z,0.47
2018-05-14T03:26:37.265Z,2.30
2018-05-14T03:28:40.587Z,0.67
2018-05-14T03:30:44.689Z,0.40
2018-05-14T03:32:48.054Z,0.40
2018-05-14T03:34:51.343Z,0.40
2018-05-14T03:36:54.729Z,0.40
2018-05-14T03:38:58.113Z,0.50
2018-05-14T03:41:01.489Z,1.83
2018-05-14T03:43:05.588Z,0.40
2018-05-14T03:45:08.943Z,0.40
2018-05-14T03:47:12.256Z,0.40
2018-05-14T03:49:15.613Z,0.50
2018-05-14T03:51:19.019Z,0.40
2018-05-14T03:53:22.360Z,0.73
2018-05-14T03:55:26.452Z,0.40
2018-05-14T03:57:29.819Z,0.67
2018-05-14T03:59:50.818Z,0.40
2018-05-14T04:04:58.875Z,0.40
2018-05-14T04:07:02.215Z,0.40
2018-05-14T04:09:06.405Z,0.40
2018-05-14T04:11:10.895Z,0.40
2018-05-14T04:13:14.244Z,3.27
2018-05-14T04:15:17.591Z,1.00
2018-05-14T04:17:21.050Z,0.40
2018-05-14T04:19:24.436Z,0.40
2018-05-14T04:21:28.033Z,0.40
2018-05-14T04:23:31.406Z,0.40
2018-05-14T04:27:48.836Z,0.40
2018-05-14T04:29:52.252Z,0.40
2018-05-14T04:31:55.620Z,0.40
2018-05-14T04:33:58.957Z,0.40
2018-05-14T04:36:02.330Z,0.40
2018-05-14T04:38:05.684Z,0.50
2018-05-14T04:40:09.778Z,0.60
2018-05-14T04:42:13.240Z,0.40
2018-05-14T04:44:16.610Z,0.50
2018-05-14T04:46:19.948Z,3.93
2018-05-14T04:48:23.317Z,0.60
2018-05-14T04:50:26.739Z,0.40
2018-05-14T04:52:31.151Z,0.40
2018-05-14T04:54:34.601Z,0.40
2018-05-14T04:56:37.972Z,1.63
2018-05-14T04:58:41.353Z,0.40
2018-05-14T05:00:45.470Z,5.83
2018-05-14T05:02:48.843Z,2.87
2018-05-14T05:04:52.584Z,0.40
2018-05-14T05:06:56.448Z,6.47
2018-05-14T05:09:00.527Z,0.60
2018-05-14T05:11:04.635Z,0.40
2018-05-14T05:13:08.017Z,19.50
2018-05-14T05:15:11.455Z,0.40
2018-05-14T05:17:15.137Z,0.40
2018-05-14T05:19:18.433Z,0.60
2018-05-14T05:21:22.836Z,1.43
2018-05-14T05:23:27.676Z,0.83
2018-05-14T05:25:31.410Z,0.40
2018-05-14T05:27:34.758Z,0.50
2018-05-14T05:29:38.185Z,0.47
2018-05-14T05:31:42.276Z,0.40
2018-05-14T05:33:45.933Z,1.37
2018-05-14T05:35:49.320Z,0.40
2018-05-14T05:37:52.700Z,0.40
2018-05-14T05:39:56.084Z,0.53
2018-05-14T05:42:00.204Z,0.50
2018-05-14T05:44:03.652Z,0.40
2018-05-14T05:46:07.028Z,0.93
2018-05-14T05:48:10.361Z,1.27
2018-05-14T05:50:13.830Z,4.00
2018-05-14T05:52:17.973Z,0.50
2018-05-14T05:54:21.611Z,2.10
2018-05-14T05:56:25.179Z,0.60
2018-05-14T05:58:29.425Z,3.70
2018-05-14T06:00:32.862Z,0.50
2018-05-14T06:02:36.306Z,0.97
2018-05-14T06:04:39.649Z,3.90
2018-05-14T06:06:43.052Z,2.00
2018-05-14T06:08:47.295Z,0.50
2018-05-14T06:10:50.785Z,0.73
2018-05-14T06:12:54.279Z,0.40
2018-05-14T06:14:57.837Z,0.70
2018-05-14T06:17:01.339Z,0.40
2018-05-14T06:19:04.788Z,1.57
2018-05-14T06:21:08.167Z,0.40
2018-05-14T06:23:12.326Z,0.40
2018-05-14T06:25:18.166Z,0.40
2018-05-14T06:27:21.580Z,0.50
2018-05-14T06:29:25.012Z,14.63
2018-05-14T06:31:28.408Z,0.43
2018-05-14T06:33:31.981Z,1.63
2018-05-14T06:35:36.264Z,0.40
2018-05-14T06:37:39.680Z,0.50
2018-05-14T06:39:43.176Z,0.50
2018-05-14T06:41:46.660Z,0.40
2018-05-14T06:43:49.988Z,0.50
2018-05-14T06:45:53.435Z,3.33
2018-05-14T06:47:56.818Z,0.50
2018-05-14T06:50:00.264Z,0.40
2018-05-14T06:52:03.633Z,0.40
2018-05-14T06:54:07.799Z,2.07
2018-05-14T06:56:11.594Z,0.80
2018-05-14T06:58:15.688Z,0.47
2018-05-14T07:00:19.001Z,0.50
2018-05-14T07:02:22.381Z,0.40
2018-05-14T07:04:25.788Z,0.40
2018-05-14T07:06:29.156Z,0.63
2018-05-14T07:08:32.458Z,0.70
2018-05-14T07:10:35.980Z,16.03
2018-05-14T07:12:39.334Z,0.50
2018-05-14T07:14:42.735Z,0.50
2018-05-14T07:16:46.153Z,2.63
2018-05-14T07:18:50.365Z,0.60
2018-05-14T07:20:54.059Z,0.50
2018-05-14T07:22:57.454Z,0.50
2018-05-14T07:25:00.980Z,0.50
2018-05-14T07:27:04.610Z,1.93
2018-05-14T07:31:24.079Z,4.20
2018-05-14T07:33:27.407Z,2.10
2018-05-14T07:35:31.705Z,0.93
2018-05-14T07:37:35.849Z,0.50
2018-05-14T07:39:39.289Z,6.77
2018-05-14T07:41:42.626Z,2.83
2018-05-14T07:43:46.014Z,1.37
2018-05-14T07:45:50.092Z,0.50
2018-05-14T07:48:11.096Z,0.50
2018-05-14T07:50:14.436Z,0.50
2018-05-14T07:54:28.138Z,0.50
2018-05-14T07:56:31.713Z,0.60
2018-05-14T07:58:35.898Z,0.50
2018-05-14T08:00:40.067Z,0.50
2018-05-14T08:02:43.529Z,15.00
2018-05-14T08:04:46.906Z,0.50
2018-05-14T08:06:50.379Z,1.53
2018-05-14T08:08:53.931Z,0.50
2018-05-14T08:10:57.283Z,0.50
2018-05-14T08:13:00.815Z,1.20
2018-05-14T08:15:04.345Z,1.53
2018-05-14T08:17:07.703Z,0.50
2018-05-14T08:19:11.087Z,17.50
2018-05-14T08:21:14.509Z,0.60
2018-05-14T08:23:18.666Z,1.20
2018-05-14T08:25:22.130Z,0.50
2018-05-14T08:27:25.553Z,0.50
2018-05-14T08:29:28.932Z,0.60
2018-05-14T08:31:32.354Z,0.50
2018-05-14T08:33:35.817Z,0.60
2018-05-14T08:35:39.227Z,0.50
2018-05-14T08:37:42.569Z,0.50
2018-05-14T08:39:46.774Z,0.50
2018-05-14T08:41:50.164Z,0.57
2018-05-14T08:43:53.545Z,0.50
2018-05-14T08:45:56.999Z,0.60
2018-05-14T08:48:00.475Z,0.50
2018-05-14T08:50:04.699Z,0.60
2018-05-14T08:52:08.072Z,0.50
2018-05-14T08:54:12.320Z,0.50
2018-05-14T08:56:15.607Z,0.50
2018-05-14T08:58:18.974Z,0.77
2018-05-14T09:00:22.417Z,0.60
2018-05-14T09:02:25.814Z,0.50
2018-05-14T09:04:29.201Z,0.60
2018-05-14T09:06:32.612Z,0.50
2018-05-14T09:08:35.994Z,2.63
2018-05-14T09:10:39.522Z,0.60
2018-05-14T09:12:43.787Z,0.60
2018-05-14T09:14:47.521Z,0.50
2018-05-14T09:16:51.982Z,0.70
2018-05-14T09:18:55.456Z,0.57
2018-05-14T09:20:59.675Z,0.50
2018-05-14T09:23:03.813Z,0.60
2018-05-14T09:25:07.291Z,0.60
2018-05-14T09:27:10.838Z,0.60
2018-05-14T09:29:14.519Z,0.50
2018-05-14T09:31:18.055Z,2.30
2018-05-14T09:33:21.400Z,0.53
2018-05-14T09:35:24.809Z,0.50
2018-05-14T09:37:28.196Z,0.50
2018-05-14T09:39:31.629Z,0.60
2018-05-14T09:41:35.036Z,0.50
2018-05-14T09:43:39.212Z,0.90
2018-05-14T09:45:42.657Z,0.50
2018-05-14T09:47:46.007Z,0.50
2018-05-14T09:49:49.318Z,6.70
2018-05-14T09:51:52.724Z,1.00
2018-05-14T09:53:56.184Z,0.60
2018-05-14T09:55:59.768Z,0.80
2018-05-14T09:58:03.319Z,1.53
2018-05-14T10:00:06.729Z,0.70
2018-05-14T10:02:10.123Z,0.50
2018-05-14T10:04:13.574Z,1.27
2018-05-14T10:06:17.789Z,0.53
2018-05-14T10:08:21.386Z,0.70
2018-05-14T10:10:24.738Z,0.50
2018-05-14T10:12:28.205Z,0.60
2018-05-14T10:14:32.548Z,0.50
2018-05-14T10:16:36.255Z,0.50
2018-05-14T10:18:39.810Z,1.23
2018-05-14T10:20:43.332Z,0.57
2018-05-14T10:22:46.748Z,0.50
2018-05-14T10:24:53.243Z,0.50
2018-05-14T10:26:56.603Z,0.60
2018-05-14T10:29:00.029Z,0.60
2018-05-14T10:31:03.917Z,0.50
2018-05-14T10:33:07.286Z,2.30
2018-05-14T10:35:10.672Z,44.83
2018-05-14T10:37:14.872Z,43.13
2018-05-14T10:39:18.266Z,44.23
2018-05-14T10:41:21.630Z,49.97
2018-05-14T10:43:25.868Z,50.27
2018-05-14T10:45:29.247Z,43.10
2018-05-14T10:47:32.707Z,42.40
2018-05-14T10:49:36.200Z,46.60
2018-05-14T10:51:39.818Z,45.40
2018-05-14T10:53:43.259Z,41.87
2018-05-14T10:55:46.628Z,41.23
2018-05-14T10:57:50.041Z,46.20
2018-05-14T10:59:53.446Z,42.37
2018-05-14T11:01:56.894Z,44.80
2018-05-14T11:04:00.905Z,45.17
2018-05-14T11:06:05.555Z,46.07
2018-05-14T11:08:09.476Z,38.57
2018-05-14T11:10:13.035Z,44.10
2018-05-14T11:12:17.264Z,31.70
2018-05-14T11:14:20.875Z,37.47
2018-05-14T11:16:24.344Z,29.70
2018-05-14T11:18:27.852Z,37.17
2018-05-14T11:20:31.298Z,42.47
2018-05-14T11:22:36.166Z,39.80
2018-05-14T11:24:39.549Z,34.90
2018-05-14T11:26:43.025Z,38.93
2018-05-14T11:28:46.441Z,31.60
2018-05-14T11:30:49.859Z,45.10
2018-05-14T11:32:53.433Z,30.90
2018-05-14T11:34:56.783Z,31.13
2018-05-14T11:37:00.211Z,35.93
2018-05-14T11:39:06.634Z,33.60
2018-05-14T11:41:09.958Z,36.83
2018-05-14T11:45:37.095Z,30.07
2018-05-14T11:47:40.515Z,32.50
2018-05-14T11:49:43.956Z,30.33
2018-05-14T11:51:47.387Z,26.37
2018-05-14T11:53:50.738Z,26.57
2018-05-14T11:55:54.133Z,25.70
2018-05-14T11:57:57.576Z,29.27
2018-05-14T12:00:01.804Z,26.87
2018-05-14T12:02:05.244Z,28.17
2018-05-14T12:04:09.477Z,30.57
2018-05-14T12:06:13.009Z,28.57
2018-05-14T12:08:16.444Z,24.50
2018-05-14T12:10:19.994Z,27.87
2018-05-14T12:12:23.528Z,24.07
2018-05-14T12:14:27.714Z,22.17
2018-05-14T12:16:31.148Z,24.73
2018-05-14T12:18:34.508Z,31.70
2018-05-14T12:20:38.077Z,28.47
2018-05-14T12:22:41.676Z,20.30
2018-05-14T12:24:45.981Z,26.40
2018-05-14T12:26:49.373Z,22.40
2018-05-14T12:28:52.973Z,37.40
2018-05-14T12:30:56.789Z,22.60
2018-05-14T12:33:01.028Z,18.50
2018-05-14T12:35:04.515Z,23.10
2018-05-14T12:37:08.295Z,22.90
2018-05-14T12:39:11.733Z,19.27
2018-05-14T12:41:15.145Z,22.10
2018-05-14T12:43:18.535Z,21.50
2018-05-14T12:45:21.960Z,20.20
2018-05-14T12:47:25.393Z,21.47
2018-05-14T12:49:28.811Z,21.80
2018-05-14T12:51:32.384Z,17.90
2018-05-14T12:53:35.809Z,15.70
2018-05-14T12:55:39.958Z,23.40
2018-05-14T12:57:43.386Z,16.27
2018-05-14T12:59:46.940Z,23.37
2018-05-14T13:01:50.546Z,18.93
2018-05-14T13:03:53.944Z,19.30
2018-05-14T13:05:57.629Z,21.57
2018-05-14T13:08:01.257Z,17.37
2018-05-14T13:10:05.144Z,16.07
2018-05-14T13:12:08.767Z,17.23
2018-05-14T13:14:12.312Z,20.20
2018-05-14T13:16:16.507Z,16.50
2018-05-14T13:18:20.463Z,13.50
2018-05-14T13:20:23.893Z,14.20
2018-05-14T13:22:27.521Z,11.70
2018-05-14T13:24:31.709Z,9.20
2018-05-14T13:26:35.098Z,15.13
2018-05-14T13:28:38.654Z,8.40
2018-05-14T13:30:42.019Z,11.57
2018-05-14T13:32:46.231Z,11.83
2018-05-14T13:34:50.547Z,17.00
2018-05-14T13:36:54.735Z,10.50
2018-05-14T13:38:58.422Z,29.90
2018-05-14T13:41:01.853Z,8.60
2018-05-14T13:43:06.039Z,15.33
2018-05-14T13:45:09.410Z,8.60
2018-05-14T13:47:12.799Z,7.53
2018-05-14T13:49:16.216Z,7.80
2018-05-14T13:51:19.592Z,8.73
2018-05-14T13:53:22.981Z,14.80
2018-05-14T13:55:26.382Z,7.60
2018-05-14T13:57:29.878Z,8.87
2018-05-14T13:59:33.210Z,8.50
2018-05-14T14:01:36.752Z,10.90
2018-05-14T14:03:40.135Z,8.77
2018-05-14T14:05:43.950Z,13.60
2018-05-14T14:07:47.385Z,8.47
2018-05-14T14:09:50.826Z,12.53
2018-05-14T14:11:54.225Z,10.27
2018-05-14T14:13:57.580Z,7.60
2018-05-14T14:16:01.759Z,7.33
2018-05-14T14:18:05.188Z,6.40
2018-05-14T14:20:08.597Z,11.90
2018-05-14T14:22:11.942Z,10.40
2018-05-14T14:24:15.400Z,5.87
2018-05-14T14:26:18.720Z,7.70
2018-05-14T14:28:22.146Z,7.67
2018-05-14T14:30:27.746Z,6.10
2018-05-14T14:32:31.157Z,10.93
2018-05-14T14:34:34.536Z,8.53
2018-05-14T14:36:37.977Z,4.77
2018-05-14T14:38:42.159Z,4.50
2018-05-14T14:40:45.632Z,15.43
2018-05-14T14:42:49.147Z,8.93
2018-05-14T14:44:52.810Z,3.73
2018-05-14T14:46:56.304Z,6.90
2018-05-14T14:48:59.673Z,10.20
2018-05-14T14:51:03.008Z,7.40
2018-05-14T14:53:06.383Z,7.07
2018-05-14T14:55:09.890Z,5.37
2018-05-14T14:57:13.420Z,6.60
2018-05-14T14:59:16.848Z,4.97
2018-05-14T15:01:20.222Z,9.47
2018-05-14T15:03:23.649Z,9.93
2018-05-14T15:05:27.065Z,8.50
2018-05-14T15:07:30.462Z,4.00
2018-05-14T15:09:33.862Z,6.30
2018-05-14T15:11:37.962Z,6.17
2018-05-14T15:13:41.893Z,4.10
2018-05-14T15:15:45.471Z,10.27
2018-05-14T15:17:48.929Z,4.07
2018-05-14T15:19:52.422Z,3.93
2018-05-14T15:21:55.759Z,6.47
2018-05-14T15:23:59.231Z,4.33
2018-05-14T15:26:02.697Z,7.03
2018-05-14T15:28:06.292Z,3.37
2018-05-14T15:30:09.695Z,4.27
2018-05-14T15:32:14.577Z,4.50
2018-05-14T15:34:17.951Z,6.83
2018-05-14T15:36:21.433Z,5.27
2018-05-14T15:38:24.865Z,4.10
2018-05-14T15:40:29.053Z,5.60
2018-05-14T15:42:32.498Z,7.07
2018-05-14T15:44:36.659Z,3.50
2018-05-14T15:46:40.248Z,6.17
2018-05-14T15:48:43.689Z,5.63
2018-05-14T15:50:48.048Z,6.30
2018-05-14T15:52:51.450Z,4.80
2018-05-14T15:54:54.816Z,3.63
2018-05-14T15:56:58.196Z,7.03
2018-05-14T15:59:01.547Z,5.40
2018-05-14T16:01:05.783Z,4.20
2018-05-14T16:03:09.240Z,9.70
2018-05-14T16:05:12.692Z,15.87
2018-05-14T16:07:16.057Z,5.73
2018-05-14T16:09:19.410Z,7.40
2018-05-14T16:11:22.829Z,3.67
2018-05-14T16:13:26.456Z,3.70
2018-05-14T16:15:30.106Z,4.20
2018-05-14T16:17:33.583Z,5.60
2018-05-14T16:19:36.893Z,15.10
2018-05-14T16:21:40.339Z,3.67
2018-05-14T16:23:44.626Z,5.63
2018-05-14T16:25:48.150Z,3.67
2018-05-14T16:27:53.173Z,5.20
2018-05-14T16:32:13.344Z,6.80
2018-05-14T16:34:18.377Z,4.60
2018-05-14T16:36:23.603Z,11.50
2018-05-14T16:38:31.715Z,4.97
2018-05-14T16:40:36.637Z,5.30
2018-05-14T16:44:50.430Z,14.97
2018-05-14T16:46:54.307Z,6.67
2018-05-14T16:49:00.472Z,4.00
2018-05-14T16:51:08.808Z,5.43
2018-05-14T16:53:12.932Z,5.00
2018-05-14T16:55:18.163Z,8.10
2018-05-14T16:57:21.865Z,3.20
2018-05-14T16:59:25.358Z,6.17
2018-05-14T17:01:31.235Z,9.90
2018-05-14T17:03:36.965Z,4.37
2018-05-14T17:07:55.058Z,6.53
2018-05-14T17:09:59.897Z,4.30
2018-05-14T17:12:03.882Z,8.20
2018-05-14T17:14:08.966Z,4.13
2018-05-14T17:16:14.121Z,5.60
2018-05-14T18:53:57.789Z,4.60
2018-05-14T18:58:38.697Z,9.20
2018-05-14T19:08:53.435Z,5.57
2018-05-14T19:13:53.336Z,16.83
2018-05-14T19:18:50.218Z,8.37
2018-05-14T19:20:56.333Z,4.23
2018-05-14T19:23:07.493Z,7.90
2018-05-14T19:25:13.613Z,5.60
2018-05-14T19:27:19.643Z,5.77
2018-05-14T19:29:33.025Z,6.47
2018-05-14T19:31:37.786Z,3.70
2018-05-14T20:26:06.932Z,7.87
2018-05-14T20:31:02.076Z,5.87
2018-05-14T20:35:21.635Z,4.00
2018-05-14T20:42:10.314Z,8.60
2018-05-14T20:47:00.533Z,6.30
2018-05-14T20:49:09.066Z,7.93
2018-05-14T20:51:12.846Z,4.00
2018-05-14T20:55:40.914Z,14.20
2018-05-14T20:57:45.279Z,5.37
2018-05-14T20:59:53.505Z,6.00
2018-05-14T21:04:18.868Z,7.87
2018-05-14T21:06:23.949Z,11.33
2018-05-14T21:18:30.206Z,5.13
2018-05-14T21:20:34.829Z,11.17
2018-05-14T21:22:38.824Z,6.87
2018-05-14T21:24:42.210Z,7.70
2018-05-14T21:26:47.063Z,10.70
2018-05-14T21:28:51.316Z,6.73
2018-05-14T21:30:54.794Z,7.43
2018-05-14T21:32:58.241Z,10.40
2018-05-14T21:35:01.628Z,8.70
2018-05-14T21:37:08.932Z,5.13
2018-05-14T21:39:12.354Z,11.47
2018-05-14T21:41:15.849Z,10.80
2018-05-14T21:43:19.726Z,5.23
2018-05-14T21:45:23.268Z,15.73
2018-05-14T21:47:26.636Z,14.00
2018-05-14T21:49:30.774Z,6.50
2018-05-14T21:51:34.296Z,15.70
2018-05-14T21:53:37.732Z,6.97
2018-05-14T21:55:41.954Z,9.83
2018-05-14T21:57:47.296Z,11.80
2018-05-14T21:59:51.426Z,15.67
2018-05-14T22:01:54.961Z,18.53
2018-05-14T22:03:58.397Z,19.33
2018-05-14T22:06:03.725Z,9.83
2018-05-14T22:08:07.064Z,17.53
2018-05-14T22:10:10.471Z,15.30
2018-05-14T22:12:13.993Z,11.27
2018-05-14T22:14:17.380Z,5.13
2018-05-14T22:16:22.051Z,4.70
2018-05-14T22:18:25.373Z,6.50
2018-05-14T22:20:29.155Z,8.67
2018-05-14T22:22:32.572Z,5.60
2018-05-14T22:24:35.960Z,6.57
2018-05-14T22:26:39.319Z,8.90
2018-05-14T22:28:42.771Z,5.40
2018-05-14T22:30:46.155Z,5.33
2018-05-14T22:32:49.521Z,6.77
2018-05-14T22:34:52.941Z,8.17
2018-05-14T22:36:56.349Z,6.63
2018-05-14T22:38:59.778Z,7.50
2018-05-14T22:41:04.036Z,6.70
2018-05-14T22:43:07.442Z,5.83
2018-05-14T22:45:10.817Z,8.80
2018-05-14T22:47:14.401Z,4.63
2018-05-14T22:49:19.107Z,17.40
2018-05-14T22:51:22.466Z,9.77
2018-05-14T22:53:25.825Z,3.87
2018-05-14T22:55:29.153Z,8.47
2018-05-14T22:57:32.536Z,10.40
2018-05-14T22:59:35.934Z,9.40
2018-05-14T23:01:39.296Z,9.63
2018-05-14T23:03:43.387Z,4.83
2018-05-14T23:05:46.746Z,5.37
2018-05-14T23:07:50.857Z,6.50
2018-05-14T23:09:55.032Z,5.53
2018-05-14T23:11:58.395Z,5.63
2018-05-14T23:14:01.835Z,5.20
2018-05-14T23:16:05.296Z,4.67
2018-05-14T23:18:10.140Z,6.60
2018-05-14T23:20:14.404Z,5.57
2018-05-14T23:22:18.556Z,8.57
2018-05-14T23:24:23.099Z,6.10
2018-05-14T23:26:27.230Z,4.90
2018-05-14T23:28:31.426Z,6.83
2018-05-14T23:30:34.823Z,12.50
2018-05-14T23:32:38.226Z,3.80
2018-05-14T23:34:41.597Z,9.30
2018-05-14T23:36:45.068Z,7.10
2018-05-14T23:38:48.497Z,6.87
2018-05-14T23:40:51.995Z,9.17
2018-05-14T23:42:55.783Z,10.43
2018-05-14T23:44:59.952Z,4.20
2018-05-14T23:47:03.290Z,4.40
2018-05-14T23:49:06.764Z,5.93
2018-05-14T23:51:10.605Z,10.00
2018-05-14T23:53:14.777Z,6.27
2018-05-14T23:55:18.183Z,5.20
2018-05-14T23:57:21.556Z,10.37
2018-05-14T23:59:24.908Z,8.63
